createdAt,value
2024-03-02T00:02:59.850Z,98496.66
2024-03-02T00:05:55.447Z,98492.36
2024-03-02T00:08:44.158Z,98490.42
2024-03-02T00:11:37.468Z,98488.05
2024-03-02T00:14:26.163Z,98486.90
2024-03-02T00:17:22.456Z,98478.98
2024-03-02T00:20:11.663Z,98478.30
2024-03-02T00:23:13.960Z,98479.17
2024-03-02T00:26:03.250Z,98480.25
2024-03-02T00:28:58.016Z,98480.63
2024-03-02T00:31:50.077Z,98484.73
2024-03-02T00:34:38.701Z,98482.47
2024-03-02T00:37:27.312Z,98480.38
2024-03-02T00:40:20.270Z,98482.10
2024-03-02T00:43:39.402Z,98478.20
2024-03-02T00:46:34.816Z,98476.15
2024-03-02T00:49:25.119Z,98477.33
2024-03-02T00:52:14.259Z,98479.81
2024-03-02T00:55:03.005Z,98478.05
2024-03-02T00:57:51.805Z,98474.42
2024-03-02T01:00:40.706Z,98477.50
2024-03-02T01:03:29.466Z,98478.38
2024-03-02T01:06:18.311Z,98474.70
2024-03-02T01:09:07.005Z,98472.00
2024-03-02T01:11:55.586Z,98463.73
2024-03-02T01:14:44.222Z,98463.06
2024-03-02T01:17:32.844Z,98467.46
2024-03-02T01:20:21.463Z,98477.17
2024-03-02T01:23:10.074Z,98476.76
2024-03-02T01:25:58.882Z,98480.27
2024-03-02T01:28:47.789Z,98480.13
2024-03-02T01:31:36.796Z,98483.89
2024-03-02T01:34:25.996Z,98476.80
2024-03-02T01:37:14.621Z,98477.67
2024-03-02T01:40:04.030Z,98479.20
2024-03-02T01:42:55.297Z,98473.27
2024-03-02T01:45:44.212Z,98470.85
2024-03-02T01:48:32.944Z,98465.19
2024-03-02T01:51:22.573Z,98460.31
2024-03-02T01:54:11.352Z,98458.84
2024-03-02T01:57:00.541Z,98456.91
2024-03-02T01:59:49.620Z,98451.39
2024-03-02T02:03:06.039Z,98450.34
2024-03-02T02:05:55.124Z,98442.70
2024-03-02T02:08:43.830Z,98440.69
2024-03-02T02:11:32.644Z,98440.05
2024-03-02T02:14:21.381Z,98438.77
2024-03-02T02:17:10.194Z,98438.08
2024-03-02T02:19:58.822Z,98437.17
2024-03-02T02:23:04.007Z,98437.23
2024-03-02T02:25:52.812Z,98432.83
2024-03-02T02:28:47.972Z,98426.49
2024-03-02T02:31:43.279Z,98423.77
2024-03-02T02:34:31.914Z,98426.66
2024-03-02T02:37:20.641Z,98430.11
2024-03-02T02:40:10.233Z,98425.54
2024-03-02T02:43:00.535Z,98422.64
2024-03-02T02:45:49.461Z,98423.97
2024-03-02T02:48:38.221Z,98425.86
2024-03-02T02:51:27.474Z,98425.38
2024-03-02T02:54:16.325Z,98418.39
2024-03-02T02:57:05.112Z,98416.17
2024-03-02T02:59:53.723Z,98419.23
2024-03-02T03:02:43.186Z,98416.88
2024-03-02T03:05:31.787Z,98415.84
2024-03-02T03:08:20.427Z,98418.27
2024-03-02T03:11:09.121Z,98419.38
2024-03-02T03:13:57.802Z,98418.84
2024-03-02T03:16:49.690Z,98422.61
2024-03-02T03:19:39.780Z,98419.81
2024-03-02T03:22:28.494Z,98418.56
2024-03-02T03:25:17.188Z,98419.61
2024-03-02T03:28:05.957Z,98417.52
2024-03-02T03:30:54.661Z,98414.66
2024-03-02T03:33:43.335Z,98414.86
2024-03-02T03:36:32.097Z,98412.74
2024-03-02T03:39:20.763Z,98406.23
2024-03-02T03:42:09.433Z,98408.96
2024-03-02T03:44:58.068Z,98408.33
2024-03-02T03:47:46.743Z,98405.14
2024-03-02T03:50:35.384Z,98401.46
2024-03-02T03:53:25.461Z,98399.24
2024-03-02T03:56:14.577Z,98403.27
2024-03-02T03:59:03.316Z,98407.52
2024-03-02T04:01:52.089Z,98411.77
2024-03-02T04:04:40.855Z,98412.09
2024-03-02T04:07:30.468Z,98411.75
2024-03-02T04:10:19.189Z,98403.00
2024-03-02T04:13:08.542Z,98402.70
2024-03-02T04:15:57.272Z,98404.72
2024-03-02T04:18:46.049Z,98400.16
2024-03-02T04:21:34.777Z,98399.23
2024-03-02T04:24:23.443Z,98399.76
2024-03-02T04:27:12.098Z,98400.66
2024-03-02T04:30:01.530Z,98412.91
2024-03-02T04:32:50.455Z,98416.10
2024-03-02T04:35:39.245Z,98410.08
2024-03-02T04:38:28.941Z,98415.86
2024-03-02T04:41:18.711Z,98417.98
2024-03-02T04:44:09.170Z,98415.70
2024-03-02T04:46:57.852Z,98421.02
2024-03-02T04:49:47.647Z,98415.34
2024-03-02T04:52:37.896Z,98411.84
2024-03-02T04:55:46.502Z,98406.83
2024-03-02T04:58:35.233Z,98415.55
2024-03-02T05:01:24.118Z,98414.38
2024-03-02T05:04:12.923Z,98413.53
2024-03-02T05:07:01.515Z,98420.63
2024-03-02T05:09:50.238Z,98423.52
2024-03-02T05:12:45.313Z,98423.27
2024-03-02T05:15:34.216Z,98426.14
2024-03-02T05:18:25.012Z,98426.86
2024-03-02T05:21:13.786Z,98424.61
2024-03-02T05:24:02.463Z,98422.08
2024-03-02T05:26:51.106Z,98421.83
2024-03-02T05:29:39.830Z,98428.05
2024-03-02T05:32:28.902Z,98425.23
2024-03-02T05:35:17.501Z,98428.80
2024-03-02T05:38:06.280Z,98428.45
2024-03-02T05:40:54.868Z,98429.30
2024-03-02T05:43:43.581Z,98431.68
2024-03-02T05:46:32.278Z,98439.21
2024-03-02T05:49:21.357Z,98438.80
2024-03-02T05:52:10.022Z,98437.52
2024-03-02T05:54:58.744Z,98442.12
2024-03-02T05:58:05.719Z,98444.36
2024-03-02T06:00:55.818Z,98447.80
2024-03-02T06:03:44.965Z,98452.13
2024-03-02T06:06:35.067Z,98463.67
2024-03-02T06:09:25.964Z,98463.40
2024-03-02T06:12:14.690Z,98460.41
2024-03-02T06:15:03.375Z,98460.89
2024-03-02T06:17:51.985Z,98461.84
2024-03-02T06:20:40.759Z,98454.83
2024-03-02T06:23:29.508Z,98465.26
2024-03-02T06:26:20.565Z,98465.01
2024-03-02T06:29:10.395Z,98466.80
2024-03-02T06:31:59.038Z,98475.27
2024-03-02T06:34:47.683Z,98475.55
2024-03-02T06:37:36.421Z,98480.10
2024-03-02T06:40:25.027Z,98478.29
2024-03-02T06:43:13.826Z,98472.27
2024-03-02T06:46:02.794Z,98472.35
2024-03-02T06:48:51.516Z,98475.24
2024-03-02T06:51:40.315Z,98478.48
2024-03-02T06:54:29.173Z,98480.30
2024-03-02T06:57:18.343Z,98484.15
2024-03-02T07:00:10.061Z,98484.59
2024-03-02T07:03:01.668Z,98486.89
2024-03-02T07:05:50.309Z,98494.09
2024-03-02T07:08:39.084Z,98486.06
2024-03-02T07:11:27.945Z,98491.05
2024-03-02T07:14:16.642Z,98505.60
2024-03-02T07:17:05.252Z,98512.81
2024-03-02T07:19:54.023Z,98509.73
2024-03-02T07:22:44.935Z,98502.48
2024-03-02T07:28:25.637Z,98491.31
2024-03-02T07:31:21.151Z,98498.15
2024-03-02T07:34:33.557Z,98504.92
2024-03-02T07:37:39.915Z,98508.07
2024-03-02T07:40:34.236Z,98507.75
2024-03-02T07:43:36.469Z,98509.11
2024-03-02T07:46:26.703Z,98512.77
2024-03-02T07:49:18.133Z,98521.52
2024-03-02T07:52:07.248Z,98530.21
2024-03-02T07:54:58.915Z,98530.96
2024-03-02T07:57:47.793Z,98521.36
2024-03-02T08:00:36.993Z,98525.80
2024-03-02T08:03:26.341Z,98528.46
2024-03-02T08:06:18.637Z,98532.64
2024-03-02T08:09:10.975Z,98536.89
2024-03-02T08:11:59.629Z,98532.00
2024-03-02T08:14:48.786Z,98525.77
2024-03-02T08:17:38.433Z,98522.77
2024-03-02T08:20:29.863Z,98524.31
2024-03-02T08:23:18.882Z,98527.77
2024-03-02T08:26:08.336Z,98527.20
2024-03-02T08:28:57.434Z,98528.52
2024-03-02T08:31:46.061Z,98518.98
2024-03-02T08:34:36.596Z,98517.81
2024-03-02T08:37:25.310Z,98531.80
2024-03-02T08:40:17.649Z,98529.35
2024-03-02T08:43:08.256Z,98525.17
2024-03-02T08:45:57.138Z,98525.31
2024-03-02T08:48:46.105Z,98530.41
2024-03-02T08:51:34.847Z,98528.48
2024-03-02T08:54:23.651Z,98530.09
2024-03-02T08:57:12.469Z,98530.68
2024-03-02T09:00:01.530Z,98533.12
2024-03-02T09:02:50.232Z,98533.21
2024-03-02T09:05:38.990Z,98535.72
2024-03-02T09:08:27.833Z,98534.27
2024-03-02T09:11:16.622Z,98532.57
2024-03-02T09:14:06.284Z,98534.08
2024-03-02T09:16:54.941Z,98533.16
2024-03-02T09:19:43.808Z,98533.04
2024-03-02T09:22:33.343Z,98543.27
2024-03-02T09:25:22.088Z,98542.13
2024-03-02T09:28:12.153Z,98541.62
2024-03-02T09:31:02.322Z,98540.35
2024-03-02T09:33:51.348Z,98542.85
2024-03-02T09:36:40.022Z,98544.23
2024-03-02T09:39:28.682Z,98539.59
2024-03-02T09:42:17.373Z,98534.42
2024-03-02T09:45:07.631Z,98536.06
2024-03-02T09:47:56.357Z,98543.34
2024-03-02T09:50:45.392Z,98538.95
2024-03-02T09:53:35.510Z,98538.37
2024-03-02T09:56:24.337Z,98537.43
2024-03-02T09:59:14.639Z,98535.20
2024-03-02T10:02:04.183Z,98537.80
2024-03-02T10:04:52.805Z,98542.09
2024-03-02T10:07:41.979Z,98541.73
2024-03-02T10:10:41.526Z,98533.62
2024-03-02T10:13:30.889Z,98531.02
2024-03-02T10:16:19.465Z,98529.14
2024-03-02T10:19:25.296Z,98527.30
2024-03-02T10:22:15.083Z,98525.30
2024-03-02T10:27:52.945Z,98528.85
2024-03-02T10:30:41.631Z,98528.02
2024-03-02T10:33:30.220Z,98527.96
2024-03-02T10:36:19.216Z,98531.79
2024-03-02T10:39:08.945Z,98532.20
2024-03-02T10:41:58.184Z,98536.20
2024-03-02T10:44:47.830Z,98533.84
2024-03-02T10:47:38.826Z,98531.90
2024-03-02T10:50:27.455Z,98532.38
2024-03-02T10:53:16.054Z,98531.63
2024-03-02T10:56:10.043Z,98529.60
2024-03-02T10:59:05.176Z,98526.00
2024-03-02T11:02:00.270Z,98522.43
2024-03-02T11:04:51.378Z,98519.11
2024-03-02T11:07:41.700Z,98522.64
2024-03-02T11:10:55.604Z,98521.98
2024-03-02T11:13:51.386Z,98525.23
2024-03-02T11:16:42.561Z,98524.23
2024-03-02T11:19:31.662Z,98521.69
2024-03-02T11:22:21.031Z,98520.99
2024-03-02T11:25:25.591Z,98520.30
2024-03-02T11:28:14.311Z,98519.10
2024-03-02T11:31:03.063Z,98524.45
2024-03-02T11:33:52.068Z,98523.27
2024-03-02T11:36:40.733Z,98518.77
2024-03-02T11:39:30.094Z,98520.40
2024-03-02T11:42:19.361Z,98517.52
2024-03-02T11:45:10.112Z,98517.14
2024-03-02T11:47:59.541Z,98519.30
2024-03-02T11:50:51.653Z,98520.83
2024-03-02T11:53:41.623Z,98519.08
2024-03-02T11:56:32.523Z,98518.33
2024-03-02T11:59:22.096Z,98512.59
2024-03-02T12:02:17.306Z,98512.63
2024-03-02T12:05:06.255Z,98512.95
2024-03-02T12:07:59.030Z,98510.11
2024-03-02T12:11:02.171Z,98506.81
2024-03-02T12:13:59.188Z,98506.73
2024-03-02T12:16:47.766Z,98507.44
2024-03-02T12:19:36.563Z,98506.73
2024-03-02T12:22:25.312Z,98504.68
2024-03-02T12:25:14.405Z,98501.28
2024-03-02T12:28:04.274Z,98502.32
2024-03-02T12:30:53.281Z,98498.27
2024-03-02T12:33:43.041Z,98495.89
2024-03-02T12:36:32.378Z,98499.70
2024-03-02T12:39:23.289Z,98495.77
2024-03-02T12:42:12.221Z,98498.50
2024-03-02T12:45:01.084Z,98499.78
2024-03-02T12:47:49.938Z,98497.98
2024-03-02T12:50:38.719Z,98498.65
2024-03-02T12:53:27.666Z,98497.23
2024-03-02T12:56:16.690Z,98496.86
2024-03-02T12:59:07.067Z,98494.52
2024-03-02T13:01:59.021Z,98493.59
2024-03-02T13:04:57.616Z,98487.70
2024-03-02T13:07:49.028Z,98487.30
2024-03-02T13:10:39.077Z,98480.80
2024-03-02T13:13:27.769Z,98483.54
2024-03-02T13:16:17.510Z,98484.06
2024-03-02T13:19:09.295Z,98485.50
2024-03-02T13:21:58.929Z,98479.81
2024-03-02T13:24:47.710Z,98479.42
2024-03-02T13:27:36.501Z,98479.32
2024-03-02T13:30:25.168Z,98479.65
2024-03-02T13:33:14.130Z,98479.67
2024-03-02T13:36:04.079Z,98479.05
2024-03-02T13:38:52.835Z,98478.09
2024-03-02T13:41:41.540Z,98479.18
2024-03-02T13:44:30.223Z,98478.04
2024-03-02T13:47:19.084Z,98476.20
2024-03-02T13:50:08.516Z,98475.95
2024-03-02T13:52:57.989Z,98476.27
2024-03-02T13:55:47.268Z,98476.52
2024-03-02T13:58:36.050Z,98476.05
2024-03-02T14:01:25.056Z,98478.16
2024-03-02T14:04:13.889Z,98480.45
2024-03-02T14:07:03.236Z,98473.84
2024-03-02T14:09:52.022Z,98475.13
2024-03-02T14:12:42.259Z,98473.30
2024-03-02T14:15:32.586Z,98478.12
2024-03-02T14:18:22.560Z,98481.26
2024-03-02T14:21:11.754Z,98483.17
2024-03-02T14:24:00.528Z,98482.73
2024-03-02T14:26:49.216Z,98480.88
2024-03-02T14:29:39.111Z,98483.61
2024-03-02T14:32:28.066Z,98483.92
2024-03-02T14:35:17.633Z,98483.05
2024-03-02T14:38:06.325Z,98485.69
2024-03-02T14:40:55.057Z,98485.58
2024-03-02T14:43:45.879Z,98478.35
2024-03-02T14:46:34.950Z,98480.66
2024-03-02T14:49:23.619Z,98479.84
2024-03-02T14:52:12.292Z,98480.89
2024-03-02T14:55:01.015Z,98478.80
2024-03-02T14:57:49.847Z,98472.73
2024-03-02T15:00:38.652Z,98465.54
2024-03-02T15:03:27.585Z,98469.17
2024-03-02T15:06:16.240Z,98471.59
2024-03-02T15:09:05.135Z,98470.35
2024-03-02T15:11:53.866Z,98471.30
2024-03-02T15:14:48.194Z,98469.52
2024-03-02T15:17:36.880Z,98473.50
2024-03-02T15:20:25.559Z,98471.97
2024-03-02T15:23:14.763Z,98469.84
2024-03-02T15:26:03.911Z,98463.43
2024-03-02T15:28:54.649Z,98468.84
2024-03-02T15:31:43.624Z,98465.02
2024-03-02T15:34:32.910Z,98463.88
2024-03-02T15:37:21.623Z,98459.84
2024-03-02T15:40:10.911Z,98463.64
2024-03-02T15:42:59.670Z,98461.43
2024-03-02T15:45:48.608Z,98462.58
2024-03-02T15:48:37.565Z,98464.27
2024-03-02T15:51:26.187Z,98468.38
2024-03-02T15:54:14.781Z,98467.49
2024-03-02T15:57:03.644Z,98467.00
2024-03-02T15:59:52.516Z,98469.19
2024-03-02T16:02:41.329Z,98464.58
2024-03-02T16:05:30.113Z,98462.33
2024-03-02T16:08:18.765Z,98462.70
2024-03-02T16:11:07.386Z,98464.82
2024-03-02T16:13:56.051Z,98470.04
2024-03-02T16:16:47.103Z,98469.60
2024-03-02T16:19:38.481Z,98470.05
2024-03-02T16:22:27.292Z,98473.67
2024-03-02T16:25:16.023Z,98470.58
2024-03-02T16:28:08.548Z,98472.27
2024-03-02T16:30:57.287Z,98479.23
2024-03-02T16:33:48.629Z,98482.30
2024-03-02T16:36:37.866Z,98487.00
2024-03-02T16:39:27.891Z,98487.35
2024-03-02T16:42:17.493Z,98493.55
2024-03-02T16:45:06.489Z,98498.09
2024-03-02T16:47:55.212Z,98497.11
2024-03-02T16:50:43.857Z,98497.05
2024-03-02T16:53:32.484Z,98497.34
2024-03-02T16:56:21.116Z,98498.17
2024-03-02T16:59:10.419Z,98497.51
2024-03-02T17:02:00.104Z,98501.20
2024-03-02T17:04:48.759Z,98502.13
2024-03-02T17:07:37.370Z,98501.32
2024-03-02T17:10:26.489Z,98502.36
2024-03-02T17:13:15.383Z,98500.85
2024-03-02T17:16:04.422Z,98504.20
2024-03-02T17:18:53.817Z,98505.30
2024-03-02T17:21:42.830Z,98506.09
2024-03-02T17:24:31.531Z,98503.21
2024-03-02T17:27:20.335Z,98507.98
2024-03-02T17:30:09.675Z,98506.27
2024-03-02T17:32:58.294Z,98509.51
2024-03-02T17:35:48.601Z,98506.66
2024-03-02T17:38:37.232Z,98507.38
2024-03-02T17:41:26.058Z,98509.57
2024-03-02T17:44:16.218Z,98512.23
2024-03-02T17:47:05.498Z,98507.77
2024-03-02T17:49:54.368Z,98508.70
2024-03-02T17:52:43.758Z,98510.17
2024-03-02T17:55:32.397Z,98510.27
2024-03-02T17:58:21.050Z,98511.55
2024-03-02T18:01:12.448Z,98508.16
2024-03-02T18:04:01.186Z,98506.27
2024-03-02T18:06:50.127Z,98506.86
2024-03-02T18:09:38.915Z,98506.36
2024-03-02T18:12:28.584Z,98509.02
2024-03-02T18:15:17.366Z,98506.59
2024-03-02T18:18:07.468Z,98504.08
2024-03-02T18:20:56.031Z,98505.25
2024-03-02T18:23:44.699Z,98503.13
2024-03-02T18:26:35.474Z,98501.14
2024-03-02T18:29:24.160Z,98500.55
2024-03-02T18:32:15.008Z,98500.35
2024-03-02T18:35:06.397Z,98501.71
2024-03-02T18:37:54.965Z,98501.57
2024-03-02T18:40:48.328Z,98502.92
2024-03-02T18:43:36.939Z,98501.66
2024-03-02T18:46:25.593Z,98502.49
2024-03-02T18:49:14.262Z,98500.98
2024-03-02T18:52:03.224Z,98499.92
2024-03-02T18:54:51.997Z,98502.42
2024-03-02T18:57:40.570Z,98498.18
2024-03-02T19:00:29.638Z,98500.27
2024-03-02T19:03:18.441Z,98497.44
2024-03-02T19:06:09.037Z,98496.63
2024-03-02T19:08:59.352Z,98499.23
2024-03-02T19:11:48.135Z,98499.95
2024-03-02T19:14:36.801Z,98504.27
2024-03-02T19:17:25.438Z,98503.48
2024-03-02T19:20:14.292Z,98503.36
2024-03-02T19:23:03.164Z,98505.38
2024-03-02T19:25:51.727Z,98507.26
2024-03-02T19:28:40.330Z,98504.56
2024-03-02T19:31:28.898Z,98509.64
2024-03-02T19:34:19.235Z,98506.70
2024-03-02T19:37:08.379Z,98510.08
2024-03-02T19:39:58.501Z,98509.56
2024-03-02T19:42:47.745Z,98506.62
2024-03-02T19:45:36.590Z,98505.23
2024-03-02T19:48:25.287Z,98500.33
2024-03-02T19:51:13.930Z,98500.63
2024-03-02T19:54:04.453Z,98500.64
2024-03-02T19:56:55.773Z,98499.17
2024-03-02T19:59:44.719Z,98498.93
2024-03-02T20:02:33.417Z,98496.36
2024-03-02T20:05:22.738Z,98499.63
2024-03-02T20:08:11.625Z,98495.83
2024-03-02T20:11:04.314Z,98495.16
2024-03-02T20:13:52.865Z,98491.98
2024-03-02T20:16:45.858Z,98495.83
2024-03-02T20:19:34.473Z,98494.92
2024-03-02T20:22:23.054Z,98494.77
2024-03-02T20:25:13.577Z,98493.72
2024-03-02T20:28:02.402Z,98492.78
2024-03-02T20:30:51.375Z,98495.67
2024-03-02T20:33:40.098Z,98496.09
2024-03-02T20:36:28.865Z,98493.06
2024-03-02T20:39:18.662Z,98495.93
2024-03-02T20:42:07.325Z,98492.37
2024-03-02T20:44:56.174Z,98488.53
2024-03-02T20:47:46.410Z,98487.40
2024-03-02T20:50:35.499Z,98486.06
2024-03-02T20:53:24.256Z,98484.15
2024-03-02T20:56:12.892Z,98483.23
2024-03-02T20:59:01.536Z,98485.84
2024-03-02T21:01:50.266Z,98486.90
2024-03-02T21:04:38.945Z,98487.66
2024-03-02T21:07:27.684Z,98483.88
2024-03-02T21:10:17.006Z,98485.45
2024-03-02T21:13:05.652Z,98484.05
2024-03-02T21:15:54.318Z,98488.77
2024-03-02T21:18:43.613Z,98486.92
2024-03-02T21:21:32.869Z,98485.96
2024-03-02T21:24:21.696Z,98485.63
2024-03-02T21:27:12.451Z,98481.52
2024-03-02T21:30:01.162Z,98477.36
2024-03-02T21:32:53.052Z,98480.48
2024-03-02T21:35:41.817Z,98479.69
2024-03-02T21:38:31.247Z,98481.74
2024-03-02T21:41:20.197Z,98481.91
2024-03-02T21:44:09.174Z,98479.44
2024-03-02T21:46:57.749Z,98478.06
2024-03-02T21:49:46.978Z,98479.38
2024-03-02T21:52:35.715Z,98477.88
2024-03-02T21:55:27.352Z,98476.42
2024-03-02T21:58:16.104Z,98477.23
2024-03-02T22:01:04.902Z,98477.02
2024-03-02T22:03:54.503Z,98472.46
2024-03-02T22:06:43.093Z,98475.13
2024-03-02T22:09:31.698Z,98471.92
2024-03-02T22:12:20.283Z,98470.45
2024-03-02T22:15:09.301Z,98469.21
2024-03-02T22:17:59.831Z,98470.45
2024-03-02T22:20:48.662Z,98467.03
2024-03-02T22:23:39.325Z,98465.41
2024-03-02T22:26:27.894Z,98464.10
2024-03-02T22:29:16.499Z,98460.64
2024-03-02T22:32:06.883Z,98463.11
2024-03-02T22:34:55.570Z,98465.81
2024-03-02T22:37:44.236Z,98465.48
2024-03-02T22:40:32.858Z,98467.29
2024-03-02T22:43:21.538Z,98467.36
2024-03-02T22:46:13.739Z,98470.39
2024-03-02T22:49:02.443Z,98473.21
2024-03-02T22:51:52.469Z,98474.50
2024-03-02T22:54:41.201Z,98473.97
2024-03-02T22:57:30.109Z,98472.17
2024-03-02T23:00:50.716Z,98477.44
2024-03-02T23:03:41.050Z,98476.90
2024-03-02T23:06:29.846Z,98477.97
2024-03-02T23:09:18.529Z,98478.20
2024-03-02T23:12:07.289Z,98475.66
2024-03-02T23:14:55.875Z,98475.16
2024-03-02T23:17:44.564Z,98469.60
2024-03-02T23:20:33.114Z,98466.98
2024-03-02T23:23:21.682Z,98462.77
2024-03-02T23:26:12.300Z,98463.47
2024-03-02T23:29:00.956Z,98464.80
2024-03-02T23:31:49.725Z,98469.82
2024-03-02T23:34:39.291Z,98468.11
2024-03-02T23:37:31.302Z,98471.96
2024-03-02T23:40:39.021Z,98472.42
2024-03-02T23:43:27.607Z,98472.23
2024-03-02T23:46:16.217Z,98470.23
2024-03-02T23:49:04.823Z,98472.59
2024-03-02T23:51:55.122Z,98468.98
2024-03-02T23:54:43.876Z,98468.26
2024-03-02T23:57:32.745Z,98468.91
